FDX157 KDEN-KLAX
Flight info
| Callsign | FDX157 |
|---|---|
| Flight time | 2h 2m |
| Altitude | 32000 |
| Route | BAYLR6 TEHRU JASSE Q90 DNERO ANJLL4 |
| Aircraft | B77L/H-SDE1E2E3FGHIJ2J3J4J5M1RWXY/LB1D1 |
Departure
| Time | 2026-04-26 04:35 |
|---|---|
| Airport | Denver International Airport (KDEN) |
Arrival
| Time | 2026-04-26 06:37 |
|---|---|
| Airport | Los Angeles International Airport (KLAX) |
| Time | Latitude | Longitude | Altitude | Speed | Heading |
|---|---|---|---|---|---|
| 2026-04-26 03:54 | 39.83089 | -104.67415 | 5390 ft | 0 kts | 360° |
| 2026-04-26 04:18 | 39.83078 | -104.67416 | 5391 ft | 2 kts | 8° |
| 2026-04-26 04:18 | 39.83064 | -104.67419 | 5391 ft | 2 kts | 20° |
| 2026-04-26 04:18 | 39.83055 | -104.67425 | 5392 ft | 2 kts | 27° |
| 2026-04-26 04:19 | 39.83042 | -104.67436 | 5392 ft | 2 kts | 39° |
| 2026-04-26 04:19 | 39.83031 | -104.67448 | 5392 ft | 2 kts | 50° |
| 2026-04-26 04:19 | 39.83023 | -104.67464 | 5392 ft | 2 kts | 61° |
| 2026-04-26 04:19 | 39.83017 | -104.67481 | 5392 ft | 2 kts | 72° |
| 2026-04-26 04:20 | 39.83013 | -104.67500 | 5392 ft | 2 kts | 83° |
| 2026-04-26 04:20 | 39.83012 | -104.67514 | 5391 ft | 0 kts | 91° |
| 2026-04-26 04:20 | 39.83012 | -104.67516 | 5391 ft | 0 kts | 91° |
| 2026-04-26 04:24 | 39.83012 | -104.67497 | 5392 ft | 4 kts | 91° |
| 2026-04-26 04:24 | 39.83013 | -104.67388 | 5394 ft | 12 kts | 88° |
| 2026-04-26 04:25 | 39.83009 | -104.67309 | 5395 ft | 13 kts | 100° |
| 2026-04-26 04:25 | 39.82964 | -104.67192 | 5397 ft | 15 kts | 121° |
| 2026-04-26 04:25 | 39.82939 | -104.67054 | 5398 ft | 16 kts | 91° |
| 2026-04-26 04:25 | 39.82938 | -104.66894 | 5400 ft | 17 kts | 91° |
| 2026-04-26 04:26 | 39.82938 | -104.66739 | 5405 ft | 16 kts | 90° |
| 2026-04-26 04:26 | 39.82935 | -104.66594 | 5411 ft | 15 kts | 90° |
| 2026-04-26 04:26 | 39.82933 | -104.66472 | 5417 ft | 12 kts | 91° |
| 2026-04-26 04:26 | 39.82932 | -104.66353 | 5420 ft | 13 kts | 85° |
| 2026-04-26 04:27 | 39.82997 | -104.66271 | 5420 ft | 16 kts | 7° |
| 2026-04-26 04:27 | 39.83123 | -104.66265 | 5418 ft | 20 kts | 0° |
| 2026-04-26 04:27 | 39.83275 | -104.66266 | 5416 ft | 23 kts | 1° |
| 2026-04-26 04:27 | 39.83458 | -104.66263 | 5410 ft | 28 kts | 1° |
| 2026-04-26 04:28 | 39.83664 | -104.66259 | 5410 ft | 29 kts | 1° |
| 2026-04-26 04:28 | 39.83853 | -104.66257 | 5410 ft | 25 kts | 1° |
| 2026-04-26 04:28 | 39.84026 | -104.66254 | 5408 ft | 24 kts | 359° |
| 2026-04-26 04:28 | 39.84192 | -104.66254 | 5403 ft | 23 kts | 0° |
| 2026-04-26 04:29 | 39.84350 | -104.66252 | 5399 ft | 22 kts | 1° |
| 2026-04-26 04:29 | 39.84497 | -104.66248 | 5399 ft | 19 kts | 1° |
| 2026-04-26 04:29 | 39.84618 | -104.66245 | 5401 ft | 15 kts | 1° |
| 2026-04-26 04:29 | 39.84719 | -104.66245 | 5403 ft | 14 kts | 357° |
| 2026-04-26 04:30 | 39.84824 | -104.66248 | 5405 ft | 15 kts | 360° |
| 2026-04-26 04:30 | 39.84950 | -104.66245 | 5409 ft | 20 kts | 2° |
| 2026-04-26 04:30 | 39.85111 | -104.66241 | 5416 ft | 24 kts | 0° |
| 2026-04-26 04:30 | 39.85371 | -104.66240 | 5424 ft | 31 kts | 360° |
| 2026-04-26 04:31 | 39.85523 | -104.66238 | 5429 ft | 32 kts | 0° |
| 2026-04-26 04:31 | 39.85753 | -104.66235 | 5433 ft | 33 kts | 1° |
| 2026-04-26 04:31 | 39.85993 | -104.66232 | 5430 ft | 34 kts | 0° |
| 2026-04-26 04:31 | 39.86069 | -104.66232 | 5428 ft | 3 kts | 2° |
| 2026-04-26 04:32 | 39.86090 | -104.66212 | 5428 ft | 5 kts | 64° |
| 2026-04-26 04:32 | 39.86102 | -104.66145 | 5426 ft | 8 kts | 80° |
| 2026-04-26 04:32 | 39.86105 | -104.66059 | 5422 ft | 10 kts | 102° |
| 2026-04-26 04:32 | 39.86053 | -104.66015 | 5421 ft | 9 kts | 180° |
| 2026-04-26 04:33 | 39.86034 | -104.66015 | 5422 ft | 0 kts | 180° |
| 2026-04-26 04:34 | 39.86002 | -104.66015 | 5422 ft | 24 kts | 180° |
| 2026-04-26 04:34 | 39.85584 | -104.66020 | 5423 ft | 93 kts | 180° |
| 2026-04-26 04:34 | 39.84723 | -104.66035 | 5409 ft | 154 kts | 179° |
| 2026-04-26 04:34 | 39.83485 | -104.66031 | 5573 ft | 190 kts | 176° |
| 2026-04-26 04:35 | 39.82196 | -104.66029 | 6346 ft | 186 kts | 176° |
| 2026-04-26 04:35 | 39.80874 | -104.66097 | 6862 ft | 198 kts | 186° |
| 2026-04-26 04:35 | 39.79512 | -104.66694 | 7179 ft | 218 kts | 206° |
| 2026-04-26 04:35 | 39.78294 | -104.67972 | 7531 ft | 237 kts | 225° |
| 2026-04-26 04:36 | 39.77162 | -104.69619 | 7957 ft | 254 kts | 230° |
| 2026-04-26 04:36 | 39.76331 | -104.71724 | 8409 ft | 274 kts | 254° |
| 2026-04-26 04:36 | 39.76142 | -104.74222 | 9122 ft | 283 kts | 269° |
| 2026-04-26 04:36 | 39.76256 | -104.76785 | 9801 ft | 287 kts | 273° |
| 2026-04-26 04:37 | 39.76475 | -104.79344 | 9944 ft | 288 kts | 274° |
| 2026-04-26 04:37 | 39.76728 | -104.81920 | 9957 ft | 286 kts | 275° |
| 2026-04-26 04:37 | 39.76990 | -104.84580 | 9968 ft | 314 kts | 275° |
| 2026-04-26 04:37 | 39.77341 | -104.88589 | 9961 ft | 354 kts | 270° |
| 2026-04-26 04:38 | 39.77291 | -104.90735 | 9954 ft | 360 kts | 262° |
| 2026-04-26 04:38 | 39.76754 | -104.93973 | 10456 ft | 373 kts | 253° |
| 2026-04-26 04:38 | 39.76064 | -104.97147 | 11744 ft | 367 kts | 253° |
| 2026-04-26 04:38 | 39.75368 | -105.00303 | 12891 ft | 364 kts | 253° |
| 2026-04-26 04:39 | 39.74590 | -105.03424 | 13773 ft | 368 kts | 248° |
| 2026-04-26 04:39 | 39.73605 | -105.06488 | 14587 ft | 374 kts | 246° |
| 2026-04-26 04:39 | 39.72584 | -105.09598 | 15463 ft | 377 kts | 246° |
| 2026-04-26 04:39 | 39.71228 | -105.13731 | 16650 ft | 378 kts | 246° |
| 2026-04-26 04:40 | 39.70543 | -105.15818 | 17273 ft | 378 kts | 246° |
| 2026-04-26 04:40 | 39.69517 | -105.18941 | 18119 ft | 380 kts | 246° |
| 2026-04-26 04:40 | 39.68482 | -105.22091 | 18926 ft | 384 kts | 246° |
| 2026-04-26 04:40 | 39.67422 | -105.25314 | 19686 ft | 388 kts | 246° |
| 2026-04-26 04:41 | 39.66365 | -105.28526 | 20420 ft | 392 kts | 246° |
| 2026-04-26 04:41 | 39.65302 | -105.31750 | 21170 ft | 394 kts | 247° |
| 2026-04-26 04:41 | 39.64220 | -105.35029 | 21935 ft | 397 kts | 247° |
| 2026-04-26 04:41 | 39.63141 | -105.38298 | 22617 ft | 400 kts | 247° |
| 2026-04-26 04:42 | 39.62047 | -105.41613 | 23291 ft | 404 kts | 248° |
| 2026-04-26 04:42 | 39.60572 | -105.46084 | 24255 ft | 406 kts | 247° |
| 2026-04-26 04:42 | 39.59837 | -105.48307 | 24721 ft | 407 kts | 247° |
| 2026-04-26 04:42 | 39.58711 | -105.51704 | 25369 ft | 410 kts | 247° |
| 2026-04-26 04:43 | 39.57584 | -105.55087 | 25993 ft | 413 kts | 247° |
| 2026-04-26 04:43 | 39.56452 | -105.58483 | 26636 ft | 416 kts | 247° |
| 2026-04-26 04:43 | 39.55230 | -105.61860 | 27283 ft | 418 kts | 242° |
| 2026-04-26 04:43 | 39.53693 | -105.65070 | 27905 ft | 422 kts | 238° |
| 2026-04-26 04:44 | 39.52070 | -105.68245 | 28583 ft | 424 kts | 238° |
| 2026-04-26 04:44 | 39.50444 | -105.71415 | 29243 ft | 426 kts | 238° |
| 2026-04-26 04:44 | 39.48792 | -105.74636 | 29986 ft | 426 kts | 238° |
| 2026-04-26 04:44 | 39.46633 | -105.78841 | 31162 ft | 421 kts | 238° |
| 2026-04-26 04:45 | 39.45557 | -105.80934 | 31705 ft | 419 kts | 238° |
| 2026-04-26 04:45 | 39.43948 | -105.84067 | 32016 ft | 421 kts | 238° |
| 2026-04-26 04:45 | 39.42326 | -105.87218 | 32031 ft | 418 kts | 238° |
| 2026-04-26 04:46 | 39.39122 | -105.93437 | 32031 ft | 416 kts | 238° |
| 2026-04-26 04:46 | 39.35894 | -105.99693 | 32032 ft | 416 kts | 238° |
| 2026-04-26 04:47 | 39.32646 | -106.05975 | 32022 ft | 415 kts | 238° |
| 2026-04-26 04:47 | 39.29433 | -106.12177 | 32022 ft | 417 kts | 237° |
| 2026-04-26 04:48 | 39.24595 | -106.21493 | 32038 ft | 417 kts | 238° |
| 2026-04-26 04:48 | 39.21371 | -106.27688 | 32064 ft | 417 kts | 237° |
| 2026-04-26 04:49 | 39.18133 | -106.33894 | 32078 ft | 416 kts | 237° |
| 2026-04-26 04:49 | 39.14920 | -106.40043 | 32049 ft | 417 kts | 237° |
| 2026-04-26 04:50 | 39.11670 | -106.46250 | 32030 ft | 418 kts | 237° |
| 2026-04-26 04:50 | 39.08432 | -106.52422 | 32021 ft | 416 kts | 237° |
| 2026-04-26 04:51 | 39.05183 | -106.58603 | 32029 ft | 417 kts | 237° |
| 2026-04-26 04:51 | 39.01929 | -106.64781 | 32037 ft | 417 kts | 237° |
| 2026-04-26 04:52 | 38.98673 | -106.70953 | 32051 ft | 418 kts | 237° |
| 2026-04-26 04:52 | 38.95416 | -106.77114 | 32055 ft | 417 kts | 237° |
| 2026-04-26 04:53 | 38.92178 | -106.83227 | 32056 ft | 417 kts | 237° |
| 2026-04-26 04:53 | 38.88911 | -106.89383 | 32082 ft | 418 kts | 237° |
| 2026-04-26 04:54 | 38.85632 | -106.95551 | 32075 ft | 418 kts | 236° |
| 2026-04-26 04:54 | 38.82363 | -107.01688 | 32089 ft | 419 kts | 237° |
| 2026-04-26 04:55 | 38.79096 | -107.07809 | 32091 ft | 418 kts | 237° |
| 2026-04-26 04:55 | 38.75796 | -107.13981 | 32076 ft | 419 kts | 236° |
| 2026-04-26 04:56 | 38.72513 | -107.20108 | 32058 ft | 419 kts | 237° |
| 2026-04-26 04:56 | 38.69230 | -107.26226 | 32052 ft | 419 kts | 236° |
| 2026-04-26 04:57 | 38.65928 | -107.32365 | 32060 ft | 418 kts | 236° |
| 2026-04-26 04:57 | 38.62625 | -107.38495 | 32056 ft | 419 kts | 237° |
| 2026-04-26 04:58 | 38.59341 | -107.44579 | 32065 ft | 419 kts | 237° |
| 2026-04-26 04:58 | 38.56042 | -107.50678 | 32055 ft | 418 kts | 237° |
| 2026-04-26 04:59 | 38.52718 | -107.56812 | 32054 ft | 419 kts | 237° |
| 2026-04-26 04:59 | 38.49409 | -107.62909 | 32074 ft | 419 kts | 237° |
| 2026-04-26 05:00 | 38.46085 | -107.69022 | 32049 ft | 419 kts | 236° |
| 2026-04-26 05:00 | 38.42767 | -107.75109 | 32049 ft | 419 kts | 236° |
| 2026-04-26 05:01 | 38.39468 | -107.81153 | 32021 ft | 418 kts | 236° |
| 2026-04-26 05:01 | 38.36133 | -107.87251 | 32040 ft | 419 kts | 236° |
| 2026-04-26 05:02 | 38.32791 | -107.93349 | 32031 ft | 420 kts | 236° |
| 2026-04-26 05:02 | 38.29477 | -107.99387 | 32034 ft | 418 kts | 236° |
| 2026-04-26 05:03 | 38.26147 | -108.05440 | 32050 ft | 419 kts | 236° |
| 2026-04-26 05:03 | 38.22816 | -108.11486 | 32034 ft | 417 kts | 236° |
| 2026-04-26 05:04 | 38.19465 | -108.17557 | 32026 ft | 419 kts | 236° |
| 2026-04-26 05:04 | 38.16125 | -108.23595 | 32006 ft | 417 kts | 236° |
| 2026-04-26 05:05 | 38.12785 | -108.29623 | 32000 ft | 420 kts | 236° |
| 2026-04-26 05:05 | 38.09434 | -108.35661 | 31999 ft | 419 kts | 236° |
| 2026-04-26 05:06 | 38.06091 | -108.41671 | 31999 ft | 417 kts | 236° |
| 2026-04-26 05:06 | 38.02753 | -108.47665 | 31989 ft | 417 kts | 236° |
| 2026-04-26 05:07 | 37.99412 | -108.53648 | 31988 ft | 416 kts | 236° |
| 2026-04-26 05:07 | 37.96084 | -108.59602 | 31977 ft | 415 kts | 236° |
| 2026-04-26 05:08 | 37.92732 | -108.65585 | 31975 ft | 416 kts | 235° |
| 2026-04-26 05:08 | 37.89371 | -108.71574 | 31993 ft | 417 kts | 235° |
| 2026-04-26 05:09 | 37.86031 | -108.77515 | 31983 ft | 414 kts | 235° |
| 2026-04-26 05:09 | 37.82682 | -108.83461 | 31978 ft | 417 kts | 235° |
| 2026-04-26 05:10 | 37.79340 | -108.89385 | 31964 ft | 415 kts | 235° |
| 2026-04-26 05:10 | 37.75985 | -108.95321 | 31963 ft | 415 kts | 235° |
| 2026-04-26 05:11 | 37.72650 | -109.01209 | 31942 ft | 414 kts | 235° |
| 2026-04-26 05:11 | 37.69290 | -109.07133 | 31933 ft | 414 kts | 235° |
| 2026-04-26 05:12 | 37.65951 | -109.13007 | 31923 ft | 413 kts | 235° |
| 2026-04-26 05:12 | 37.62587 | -109.18917 | 31931 ft | 414 kts | 235° |
| 2026-04-26 05:13 | 37.59257 | -109.24757 | 31927 ft | 414 kts | 235° |
| 2026-04-26 05:13 | 37.55882 | -109.30665 | 31912 ft | 413 kts | 235° |
| 2026-04-26 05:14 | 37.52524 | -109.36531 | 31906 ft | 414 kts | 235° |
| 2026-04-26 05:14 | 37.49163 | -109.42393 | 31900 ft | 412 kts | 235° |
| 2026-04-26 05:15 | 37.45831 | -109.48196 | 31902 ft | 412 kts | 235° |
| 2026-04-26 05:15 | 37.42459 | -109.54056 | 31903 ft | 413 kts | 235° |
| 2026-04-26 05:16 | 37.39101 | -109.59883 | 31909 ft | 412 kts | 235° |
| 2026-04-26 05:16 | 37.35738 | -109.65707 | 31911 ft | 412 kts | 234° |
| 2026-04-26 05:17 | 37.32389 | -109.71498 | 31920 ft | 410 kts | 235° |
| 2026-04-26 05:17 | 37.29031 | -109.77293 | 31921 ft | 410 kts | 234° |
| 2026-04-26 05:18 | 37.25663 | -109.83098 | 31920 ft | 410 kts | 234° |
| 2026-04-26 05:18 | 37.22326 | -109.88837 | 31931 ft | 408 kts | 234° |
| 2026-04-26 05:19 | 37.18980 | -109.94582 | 31926 ft | 408 kts | 234° |
| 2026-04-26 05:19 | 37.15631 | -110.00322 | 31928 ft | 409 kts | 234° |
| 2026-04-26 05:20 | 37.12289 | -110.06042 | 31921 ft | 408 kts | 234° |
| 2026-04-26 05:20 | 37.08944 | -110.11757 | 31920 ft | 408 kts | 234° |
| 2026-04-26 05:21 | 37.05583 | -110.17487 | 31916 ft | 408 kts | 234° |
| 2026-04-26 05:21 | 37.02234 | -110.23189 | 31923 ft | 407 kts | 234° |
| 2026-04-26 05:22 | 36.98893 | -110.28868 | 31918 ft | 406 kts | 234° |
| 2026-04-26 05:22 | 36.95557 | -110.34529 | 31904 ft | 406 kts | 234° |
| 2026-04-26 05:23 | 36.92179 | -110.40250 | 31895 ft | 405 kts | 234° |
| 2026-04-26 05:23 | 36.88837 | -110.45901 | 31919 ft | 406 kts | 234° |
| 2026-04-26 05:24 | 36.85508 | -110.51520 | 31910 ft | 404 kts | 234° |
| 2026-04-26 05:24 | 36.82165 | -110.57154 | 31914 ft | 405 kts | 234° |
| 2026-04-26 05:25 | 36.78827 | -110.62770 | 31913 ft | 404 kts | 234° |
| 2026-04-26 05:25 | 36.75483 | -110.68388 | 31921 ft | 403 kts | 233° |
| 2026-04-26 05:26 | 36.72132 | -110.74008 | 31933 ft | 402 kts | 234° |
| 2026-04-26 05:26 | 36.68811 | -110.79569 | 31935 ft | 403 kts | 233° |
| 2026-04-26 05:27 | 36.65456 | -110.85177 | 31928 ft | 402 kts | 233° |
| 2026-04-26 05:27 | 36.62140 | -110.90710 | 31929 ft | 402 kts | 233° |
| 2026-04-26 05:28 | 36.58791 | -110.96290 | 31922 ft | 402 kts | 233° |
| 2026-04-26 05:28 | 36.55452 | -111.01842 | 31923 ft | 402 kts | 233° |
| 2026-04-26 05:29 | 36.52115 | -111.07385 | 31921 ft | 401 kts | 233° |
| 2026-04-26 05:29 | 36.48775 | -111.12921 | 31919 ft | 401 kts | 233° |
| 2026-04-26 05:30 | 36.45420 | -111.18475 | 31923 ft | 400 kts | 233° |
| 2026-04-26 05:30 | 36.42091 | -111.23975 | 31917 ft | 400 kts | 233° |
| 2026-04-26 05:31 | 36.38775 | -111.29446 | 31912 ft | 399 kts | 233° |
| 2026-04-26 05:31 | 36.35439 | -111.34940 | 31917 ft | 398 kts | 233° |
| 2026-04-26 05:32 | 36.32117 | -111.40404 | 31919 ft | 396 kts | 233° |
| 2026-04-26 05:32 | 36.28789 | -111.45868 | 31919 ft | 398 kts | 233° |
| 2026-04-26 05:33 | 36.25462 | -111.51321 | 31910 ft | 397 kts | 233° |
| 2026-04-26 05:33 | 36.22146 | -111.56748 | 31915 ft | 395 kts | 233° |
| 2026-04-26 05:34 | 36.18832 | -111.62164 | 31917 ft | 396 kts | 233° |
| 2026-04-26 05:34 | 36.15519 | -111.67568 | 31933 ft | 394 kts | 233° |
| 2026-04-26 05:35 | 36.12193 | -111.72987 | 31927 ft | 395 kts | 233° |
| 2026-04-26 05:35 | 36.08876 | -111.78382 | 31923 ft | 394 kts | 233° |
| 2026-04-26 05:36 | 36.06007 | -111.84094 | 31917 ft | 394 kts | 244° |
| 2026-04-26 05:36 | 36.04039 | -111.90447 | 31922 ft | 396 kts | 246° |
| 2026-04-26 05:37 | 36.02086 | -111.96773 | 31913 ft | 396 kts | 246° |
| 2026-04-26 05:37 | 36.00106 | -112.03065 | 31939 ft | 393 kts | 246° |
| 2026-04-26 05:38 | 35.98087 | -112.09408 | 31940 ft | 395 kts | 246° |
| 2026-04-26 05:38 | 35.96066 | -112.15716 | 31938 ft | 397 kts | 246° |
| 2026-04-26 05:39 | 35.94038 | -112.22021 | 31941 ft | 396 kts | 246° |
| 2026-04-26 05:39 | 35.91998 | -112.28342 | 31918 ft | 398 kts | 246° |
| 2026-04-26 05:40 | 35.89955 | -112.34657 | 31913 ft | 396 kts | 245° |
| 2026-04-26 05:40 | 35.87911 | -112.40961 | 31925 ft | 398 kts | 246° |
| 2026-04-26 05:41 | 35.85857 | -112.47280 | 31923 ft | 395 kts | 245° |
| 2026-04-26 05:41 | 35.83818 | -112.53542 | 31927 ft | 395 kts | 246° |
| 2026-04-26 05:42 | 35.81782 | -112.59777 | 31922 ft | 394 kts | 246° |
| 2026-04-26 05:42 | 35.79714 | -112.66099 | 31920 ft | 397 kts | 245° |
| 2026-04-26 05:43 | 35.77668 | -112.72343 | 31929 ft | 395 kts | 245° |
| 2026-04-26 05:43 | 35.75601 | -112.78635 | 31912 ft | 395 kts | 245° |
| 2026-04-26 05:44 | 35.73551 | -112.84863 | 31914 ft | 393 kts | 245° |
| 2026-04-26 05:44 | 35.71502 | -112.91074 | 31911 ft | 396 kts | 245° |
| 2026-04-26 05:45 | 35.69426 | -112.97356 | 31910 ft | 394 kts | 245° |
| 2026-04-26 05:45 | 35.67365 | -113.03574 | 31895 ft | 396 kts | 245° |
| 2026-04-26 05:46 | 35.65289 | -113.09832 | 31915 ft | 394 kts | 245° |
| 2026-04-26 05:46 | 35.63219 | -113.16054 | 31887 ft | 398 kts | 245° |
| 2026-04-26 05:47 | 35.61130 | -113.22323 | 31900 ft | 395 kts | 245° |
| 2026-04-26 05:47 | 35.59043 | -113.28570 | 31892 ft | 400 kts | 245° |
| 2026-04-26 05:48 | 35.56929 | -113.34885 | 31876 ft | 396 kts | 245° |
| 2026-04-26 05:48 | 35.54841 | -113.41111 | 31875 ft | 398 kts | 245° |
| 2026-04-26 05:49 | 35.51687 | -113.50492 | 31873 ft | 397 kts | 245° |
| 2026-04-26 05:50 | 35.49583 | -113.56730 | 31857 ft | 397 kts | 245° |
| 2026-04-26 05:50 | 35.47476 | -113.62967 | 31863 ft | 399 kts | 245° |
| 2026-04-26 05:51 | 35.45354 | -113.69237 | 31869 ft | 395 kts | 244° |
| 2026-04-26 05:51 | 35.43242 | -113.75461 | 31859 ft | 399 kts | 245° |
| 2026-04-26 05:52 | 35.41132 | -113.81671 | 31871 ft | 396 kts | 245° |
| 2026-04-26 05:52 | 35.38999 | -113.87930 | 31839 ft | 399 kts | 244° |
| 2026-04-26 05:53 | 35.36868 | -113.94176 | 31847 ft | 398 kts | 244° |
| 2026-04-26 05:53 | 35.34716 | -114.00468 | 31822 ft | 399 kts | 244° |
| 2026-04-26 05:54 | 35.32589 | -114.06673 | 31835 ft | 401 kts | 244° |
| 2026-04-26 05:54 | 35.30425 | -114.12978 | 31819 ft | 400 kts | 244° |
| 2026-04-26 05:55 | 35.28283 | -114.19203 | 31816 ft | 397 kts | 244° |
| 2026-04-26 05:55 | 35.26119 | -114.25478 | 31803 ft | 401 kts | 244° |
| 2026-04-26 05:56 | 35.23973 | -114.31690 | 31807 ft | 397 kts | 244° |
| 2026-04-26 05:56 | 35.21797 | -114.37974 | 31781 ft | 402 kts | 244° |
| 2026-04-26 05:57 | 35.19630 | -114.44222 | 31773 ft | 400 kts | 244° |
| 2026-04-26 05:57 | 35.17444 | -114.50512 | 31767 ft | 401 kts | 245° |
| 2026-04-26 05:58 | 35.15263 | -114.56773 | 31769 ft | 402 kts | 244° |
| 2026-04-26 05:58 | 35.13075 | -114.63042 | 31782 ft | 402 kts | 244° |
| 2026-04-26 05:59 | 35.10888 | -114.69345 | 31798 ft | 401 kts | 244° |
| 2026-04-26 05:59 | 35.08701 | -114.75634 | 31801 ft | 405 kts | 244° |
| 2026-04-26 06:00 | 35.06510 | -114.81924 | 31790 ft | 404 kts | 244° |
| 2026-04-26 06:00 | 35.04301 | -114.88248 | 31772 ft | 406 kts | 244° |
| 2026-04-26 06:01 | 35.01906 | -114.94476 | 31780 ft | 405 kts | 240° |
| 2026-04-26 06:01 | 34.99232 | -115.00522 | 31778 ft | 406 kts | 240° |
| 2026-04-26 06:02 | 34.96581 | -115.06572 | 31780 ft | 403 kts | 240° |
| 2026-04-26 06:02 | 34.93948 | -115.12602 | 31776 ft | 406 kts | 240° |
| 2026-04-26 06:03 | 34.91312 | -115.18645 | 31793 ft | 400 kts | 240° |
| 2026-04-26 06:03 | 34.88703 | -115.24622 | 31809 ft | 402 kts | 240° |
| 2026-04-26 06:04 | 34.86088 | -115.30608 | 31805 ft | 403 kts | 240° |
| 2026-04-26 06:04 | 34.83464 | -115.36608 | 31804 ft | 401 kts | 240° |
| 2026-04-26 06:05 | 34.80851 | -115.42570 | 31806 ft | 400 kts | 240° |
| 2026-04-26 06:05 | 34.78299 | -115.48579 | 31799 ft | 401 kts | 244° |
| 2026-04-26 06:06 | 34.76062 | -115.54785 | 31806 ft | 401 kts | 244° |
| 2026-04-26 06:06 | 34.73805 | -115.60995 | 31803 ft | 400 kts | 244° |
| 2026-04-26 06:07 | 34.71534 | -115.67189 | 31819 ft | 403 kts | 244° |
| 2026-04-26 06:07 | 34.69264 | -115.73355 | 31816 ft | 401 kts | 244° |
| 2026-04-26 06:08 | 34.66998 | -115.79491 | 31815 ft | 401 kts | 244° |
| 2026-04-26 06:08 | 34.64697 | -115.85701 | 31807 ft | 403 kts | 244° |
| 2026-04-26 06:09 | 34.62419 | -115.91850 | 31815 ft | 399 kts | 244° |
| 2026-04-26 06:09 | 34.60161 | -115.97988 | 31812 ft | 402 kts | 244° |
| 2026-04-26 06:10 | 34.57874 | -116.04189 | 31811 ft | 400 kts | 244° |
| 2026-04-26 06:10 | 34.55609 | -116.10317 | 31705 ft | 396 kts | 244° |
| 2026-04-26 06:10 | 34.54481 | -116.13363 | 31187 ft | 393 kts | 244° |
| 2026-04-26 06:11 | 34.53371 | -116.16357 | 30606 ft | 391 kts | 244° |
| 2026-04-26 06:11 | 34.52269 | -116.19330 | 30246 ft | 384 kts | 244° |
| 2026-04-26 06:11 | 34.51185 | -116.22249 | 29878 ft | 382 kts | 244° |
| 2026-04-26 06:11 | 34.50059 | -116.25272 | 29463 ft | 400 kts | 244° |
| 2026-04-26 06:12 | 34.48914 | -116.28352 | 29021 ft | 402 kts | 244° |
| 2026-04-26 06:12 | 34.47778 | -116.31403 | 28583 ft | 397 kts | 245° |
| 2026-04-26 06:12 | 34.46654 | -116.34420 | 28151 ft | 391 kts | 244° |
| 2026-04-26 06:12 | 34.45539 | -116.37411 | 27729 ft | 385 kts | 244° |
| 2026-04-26 06:13 | 34.44450 | -116.40325 | 27313 ft | 379 kts | 245° |
| 2026-04-26 06:13 | 34.43377 | -116.43199 | 26894 ft | 373 kts | 245° |
| 2026-04-26 06:13 | 34.42321 | -116.46022 | 26470 ft | 368 kts | 244° |
| 2026-04-26 06:13 | 34.41256 | -116.48841 | 26060 ft | 371 kts | 244° |
| 2026-04-26 06:14 | 34.40098 | -116.51664 | 25624 ft | 382 kts | 243° |
| 2026-04-26 06:14 | 34.38914 | -116.54514 | 25160 ft | 382 kts | 242° |
| 2026-04-26 06:14 | 34.37719 | -116.57395 | 24694 ft | 379 kts | 243° |
| 2026-04-26 06:14 | 34.36561 | -116.60191 | 24248 ft | 373 kts | 243° |
| 2026-04-26 06:15 | 34.35401 | -116.62992 | 23896 ft | 365 kts | 243° |
| 2026-04-26 06:15 | 34.34289 | -116.65680 | 23855 ft | 349 kts | 243° |
| 2026-04-26 06:15 | 34.33230 | -116.68240 | 23868 ft | 336 kts | 243° |
| 2026-04-26 06:15 | 34.32190 | -116.70813 | 23510 ft | 344 kts | 243° |
| 2026-04-26 06:16 | 34.31150 | -116.73411 | 22956 ft | 345 kts | 244° |
| 2026-04-26 06:16 | 34.30113 | -116.75996 | 22486 ft | 342 kts | 244° |
| 2026-04-26 06:16 | 34.29087 | -116.78548 | 22070 ft | 337 kts | 244° |
| 2026-04-26 06:16 | 34.28074 | -116.81065 | 21661 ft | 333 kts | 244° |
| 2026-04-26 06:17 | 34.27057 | -116.83591 | 21246 ft | 331 kts | 243° |
| 2026-04-26 06:17 | 34.26052 | -116.86083 | 20847 ft | 332 kts | 243° |
| 2026-04-26 06:17 | 34.25040 | -116.88589 | 20436 ft | 330 kts | 244° |
| 2026-04-26 06:17 | 34.24046 | -116.91049 | 20035 ft | 327 kts | 244° |
| 2026-04-26 06:18 | 34.23047 | -116.93519 | 19645 ft | 323 kts | 245° |
| 2026-04-26 06:18 | 34.22068 | -116.95940 | 19257 ft | 322 kts | 244° |
| 2026-04-26 06:18 | 34.21120 | -116.98380 | 18860 ft | 323 kts | 249° |
| 2026-04-26 06:18 | 34.20393 | -117.00944 | 18528 ft | 321 kts | 251° |
| 2026-04-26 06:19 | 34.19707 | -117.03494 | 18252 ft | 319 kts | 252° |
| 2026-04-26 06:19 | 34.19026 | -117.06027 | 17970 ft | 318 kts | 251° |
| 2026-04-26 06:19 | 34.18348 | -117.08538 | 17676 ft | 317 kts | 251° |
| 2026-04-26 06:19 | 34.17667 | -117.11051 | 17390 ft | 315 kts | 252° |
| 2026-04-26 06:20 | 34.16987 | -117.13560 | 17110 ft | 314 kts | 251° |
| 2026-04-26 06:20 | 34.16311 | -117.16052 | 16806 ft | 313 kts | 251° |
| 2026-04-26 06:20 | 34.15626 | -117.18542 | 16486 ft | 313 kts | 251° |
| 2026-04-26 06:20 | 34.14944 | -117.21023 | 16142 ft | 311 kts | 252° |
| 2026-04-26 06:21 | 34.14270 | -117.23471 | 15809 ft | 308 kts | 251° |
| 2026-04-26 06:21 | 34.13586 | -117.25952 | 15471 ft | 308 kts | 251° |
| 2026-04-26 06:21 | 34.12920 | -117.28370 | 15141 ft | 306 kts | 251° |
| 2026-04-26 06:21 | 34.12248 | -117.30807 | 14803 ft | 305 kts | 251° |
| 2026-04-26 06:22 | 34.11583 | -117.33218 | 14472 ft | 305 kts | 252° |
| 2026-04-26 06:22 | 34.10912 | -117.35645 | 14135 ft | 305 kts | 251° |
| 2026-04-26 06:22 | 34.10249 | -117.38068 | 13794 ft | 302 kts | 252° |
| 2026-04-26 06:22 | 34.09650 | -117.40478 | 13416 ft | 298 kts | 253° |
| 2026-04-26 06:23 | 34.09066 | -117.42853 | 13040 ft | 295 kts | 253° |
| 2026-04-26 06:23 | 34.08486 | -117.45194 | 12671 ft | 291 kts | 253° |
| 2026-04-26 06:23 | 34.07911 | -117.47527 | 12299 ft | 289 kts | 253° |
| 2026-04-26 06:23 | 34.07344 | -117.49844 | 11923 ft | 288 kts | 254° |
| 2026-04-26 06:24 | 34.06786 | -117.52140 | 11555 ft | 289 kts | 254° |
| 2026-04-26 06:24 | 34.06183 | -117.54471 | 11137 ft | 288 kts | 246° |
| 2026-04-26 06:24 | 34.05216 | -117.56524 | 10779 ft | 280 kts | 241° |
| 2026-04-26 06:24 | 34.04298 | -117.58529 | 10607 ft | 267 kts | 244° |
| 2026-04-26 06:25 | 34.03511 | -117.60512 | 10525 ft | 262 kts | 246° |
| 2026-04-26 06:25 | 34.02761 | -117.62532 | 10406 ft | 257 kts | 247° |
| 2026-04-26 06:25 | 34.02060 | -117.64468 | 10293 ft | 253 kts | 247° |
| 2026-04-26 06:25 | 34.01351 | -117.66433 | 10192 ft | 254 kts | 247° |
| 2026-04-26 06:26 | 34.00734 | -117.68394 | 10075 ft | 254 kts | 257° |
| 2026-04-26 06:26 | 34.00462 | -117.70521 | 9827 ft | 257 kts | 262° |
| 2026-04-26 06:26 | 34.00256 | -117.72662 | 9459 ft | 257 kts | 262° |
| 2026-04-26 06:26 | 34.00054 | -117.74790 | 9128 ft | 256 kts | 262° |
| 2026-04-26 06:27 | 33.99851 | -117.76892 | 8818 ft | 254 kts | 262° |
| 2026-04-26 06:27 | 33.99645 | -117.79002 | 8510 ft | 252 kts | 262° |
| 2026-04-26 06:27 | 33.99439 | -117.81097 | 8202 ft | 250 kts | 262° |
| 2026-04-26 06:27 | 33.99236 | -117.83165 | 7903 ft | 250 kts | 262° |
| 2026-04-26 06:28 | 33.99035 | -117.85243 | 7597 ft | 250 kts | 262° |
| 2026-04-26 06:28 | 33.98836 | -117.87293 | 7300 ft | 249 kts | 262° |
| 2026-04-26 06:28 | 33.98635 | -117.89357 | 6999 ft | 247 kts | 262° |
| 2026-04-26 06:28 | 33.98434 | -117.91406 | 6732 ft | 245 kts | 262° |
| 2026-04-26 06:29 | 33.98233 | -117.93447 | 6521 ft | 246 kts | 262° |
| 2026-04-26 06:29 | 33.98031 | -117.95504 | 6304 ft | 247 kts | 262° |
| 2026-04-26 06:29 | 33.97829 | -117.97549 | 6076 ft | 246 kts | 263° |
| 2026-04-26 06:29 | 33.97559 | -118.00279 | 5766 ft | 244 kts | 263° |
| 2026-04-26 06:30 | 33.97427 | -118.01609 | 5614 ft | 244 kts | 263° |
| 2026-04-26 06:30 | 33.97224 | -118.03652 | 5385 ft | 243 kts | 263° |
| 2026-04-26 06:30 | 33.97023 | -118.05675 | 5156 ft | 243 kts | 263° |
| 2026-04-26 06:30 | 33.96822 | -118.07683 | 4928 ft | 243 kts | 262° |
| 2026-04-26 06:31 | 33.96606 | -118.09714 | 4627 ft | 243 kts | 262° |
| 2026-04-26 06:31 | 33.96405 | -118.11689 | 4311 ft | 236 kts | 263° |
| 2026-04-26 06:31 | 33.96219 | -118.13605 | 4029 ft | 226 kts | 263° |
| 2026-04-26 06:31 | 33.96042 | -118.15458 | 3767 ft | 213 kts | 263° |
| 2026-04-26 06:32 | 33.95880 | -118.17149 | 3519 ft | 196 kts | 263° |
| 2026-04-26 06:32 | 33.95726 | -118.18729 | 3255 ft | 183 kts | 263° |
| 2026-04-26 06:32 | 33.95582 | -118.20184 | 3038 ft | 169 kts | 263° |
| 2026-04-26 06:32 | 33.95445 | -118.21547 | 2842 ft | 158 kts | 263° |
| 2026-04-26 06:33 | 33.95315 | -118.22832 | 2646 ft | 150 kts | 263° |
| 2026-04-26 06:33 | 33.95190 | -118.24058 | 2455 ft | 145 kts | 263° |
| 2026-04-26 06:33 | 33.95068 | -118.25256 | 2265 ft | 144 kts | 263° |
| 2026-04-26 06:33 | 33.94947 | -118.26443 | 2076 ft | 143 kts | 263° |
| 2026-04-26 06:34 | 33.94825 | -118.27637 | 1882 ft | 143 kts | 262° |
| 2026-04-26 06:34 | 33.94701 | -118.28841 | 1688 ft | 144 kts | 262° |
| 2026-04-26 06:34 | 33.94572 | -118.30039 | 1489 ft | 145 kts | 262° |
| 2026-04-26 06:34 | 33.94430 | -118.31244 | 1253 ft | 144 kts | 262° |
| 2026-04-26 06:35 | 33.94315 | -118.32439 | 1027 ft | 145 kts | 264° |
| 2026-04-26 06:35 | 33.94164 | -118.34043 | 759 ft | 145 kts | 262° |
| 2026-04-26 06:35 | 33.94078 | -118.34847 | 634 ft | 144 kts | 264° |
| 2026-04-26 06:35 | 33.93964 | -118.36050 | 460 ft | 145 kts | 262° |
| 2026-04-26 06:36 | 33.93840 | -118.37256 | 302 ft | 145 kts | 263° |
| 2026-04-26 06:36 | 33.93720 | -118.38461 | 139 ft | 145 kts | 263° |
| 2026-04-26 06:36 | 33.93605 | -118.39570 | 117 ft | 111 kts | 264° |
| 2026-04-26 06:36 | 33.93531 | -118.40308 | 127 ft | 67 kts | 264° |
| 2026-04-26 06:37 | 33.93499 | -118.40630 | 130 ft | 12 kts | 257° |
| 2026-04-26 06:37 | 33.93480 | -118.40685 | 130 ft | 2 kts | 234° |
| 2026-04-26 06:37 | 33.93456 | -118.40710 | 131 ft | 4 kts | 211° |
| 2026-04-26 06:37 | 33.93429 | -118.40718 | 131 ft | 2 kts | 182° |
| 2026-04-26 06:38 | 33.93416 | -118.40717 | 131 ft | 2 kts | 174° |
| 2026-04-26 06:38 | 33.93393 | -118.40704 | 131 ft | 6 kts | 142° |
| 2026-04-26 06:38 | 33.93375 | -118.40636 | 129 ft | 12 kts | 88° |
| 2026-04-26 06:38 | 33.93386 | -118.40514 | 128 ft | 16 kts | 84° |
| 2026-04-26 06:39 | 33.93397 | -118.40363 | 127 ft | 18 kts | 86° |
| 2026-04-26 06:39 | 33.93417 | -118.40204 | 127 ft | 19 kts | 82° |
| 2026-04-26 06:39 | 33.93433 | -118.40040 | 124 ft | 20 kts | 83° |
| 2026-04-26 06:39 | 33.93453 | -118.39871 | 122 ft | 20 kts | 84° |
| 2026-04-26 06:40 | 33.93466 | -118.39701 | 118 ft | 20 kts | 84° |
| 2026-04-26 06:40 | 33.93489 | -118.39524 | 117 ft | 21 kts | 82° |
| 2026-04-26 06:40 | 33.93506 | -118.39346 | 114 ft | 21 kts | 85° |
| 2026-04-26 06:40 | 33.93523 | -118.39166 | 114 ft | 21 kts | 83° |
| 2026-04-26 06:41 | 33.93539 | -118.38992 | 113 ft | 21 kts | 83° |
| 2026-04-26 06:41 | 33.93545 | -118.38860 | 110 ft | 12 kts | 104° |
| 2026-04-26 06:41 | 33.93511 | -118.38799 | 110 ft | 8 kts | 156° |
| 2026-04-26 06:41 | 33.93460 | -118.38786 | 110 ft | 5 kts | 173° |
| 2026-04-26 06:42 | 33.93426 | -118.38782 | 110 ft | 4 kts | 173° |
| 2026-04-26 06:42 | 33.93413 | -118.38779 | 110 ft | 0 kts | 173° |